Time;durP1;ratioP1;P1;durP2;ratioP2;P2;SDS_P1;SDS_P2;PMS_P1;PMS_P2;Temp;Humidity;BMP_temperature;BMP_pressure;BME280_temperature;BME280_humidity;BME280_pressure;Samples;Min_cycle;Max_cycle;Signal;HPM_P1;HPM_P2
2022/10/12 00:02:01;;;;;;;70.80;33.00;;;;;;;3.78;90.59;99645.98;214482;1287;24215;-73
2022/10/12 00:07:03;;;;;;;64.70;31.00;;;;;;;3.74;90.53;99641.06;214641;1288;24253;-74
2022/10/12 00:12:04;;;;;;;69.90;30.90;;;;;;;3.71;90.65;99641.70;214678;1309;25429;-73
2022/10/12 00:17:06;;;;;;;65.30;30.80;;;;;;;3.67;90.66;99648.11;214641;1287;22583;-74
2022/10/12 00:22:08;;;;;;;66.40;30.60;;;;;;;3.61;90.66;99647.27;214712;1293;23999;-72
2022/10/12 00:27:10;;;;;;;69.80;33.30;;;;;;;3.57;90.84;99643.16;214701;1283;25330;-72
2022/10/12 00:32:12;;;;;;;69.40;30.60;;;;;;;3.53;90.83;99643.38;214607;1301;22493;-73
2022/10/12 00:37:13;;;;;;;79.00;30.00;;;;;;;3.49;90.99;99645.13;214672;1284;23882;-73
2022/10/12 00:42:19;;;;;;;67.50;30.40;;;;;;;3.46;90.94;99641.77;214724;1309;22503;-73
2022/10/12 00:47:36;;;;;;;65.70;31.30;;;;;;;3.43;91.14;99639.80;214894;1288;22705;-74
2022/10/12 00:52:48;;;;;;;61.70;26.80;;;;;;;3.43;91.22;99639.33;214985;1286;25463;-71
2022/10/12 00:57:54;;;;;;;49.50;22.90;;;;;;;3.43;91.51;99638.27;214713;1309;22504;-74
2022/10/12 01:02:57;;;;;;;44.40;21.30;;;;;;;3.47;91.79;99638.38;214917;1284;24263;-73
2022/10/12 01:07:59;;;;;;;54.60;24.20;;;;;;;3.48;91.78;99640.90;214637;1309;22479;-73
2022/10/12 01:13:02;;;;;;;51.00;25.00;;;;;;;3.46;91.72;99635.86;214908;1283;22460;-73
2022/10/12 01:18:26;;;;;;;49.00;23.10;;;;;;;3.44;91.86;99634.27;215019;1284;22519;-72
2022/10/12 01:23:37;;;;;;;44.40;21.10;;;;;;;3.43;91.95;99631.65;214661;1294;25378;-73
2022/10/12 01:29:18;;;;;;;45.40;24.10;;;;;;;3.40;91.96;99630.91;214753;1295;25358;-73
2022/10/12 01:34:32;;;;;;;45.30;21.00;;;;;;;3.34;91.93;99637.33;214715;1309;23085;-73
2022/10/12 01:39:42;;;;;;;46.00;22.20;;;;;;;3.29;91.90;99642.51;214576;1309;26650;-73
2022/10/12 01:44:44;;;;;;;47.20;21.50;;;;;;;3.25;91.93;99645.73;214706;1309;22477;-73
2022/10/12 01:49:45;;;;;;;51.90;23.30;;;;;;;3.22;92.12;99645.85;214585;1283;23900;-75
2022/10/12 01:55:01;;;;;;;51.30;25.60;;;;;;;3.17;91.99;99645.55;214639;1309;22518;-73
2022/10/12 02:00:15;;;;;;;50.40;26.20;;;;;;;3.13;92.03;99643.15;214552;1288;22497;-73
2022/10/12 02:05:44;;;;;;;50.40;25.50;;;;;;;3.09;92.10;99634.43;214901;1309;25288;-74
2022/10/12 02:11:01;;;;;;;44.00;21.70;;;;;;;3.04;92.06;99637.25;214359;1288;22483;-73
2022/10/12 02:16:09;;;;;;;43.70;19.30;;;;;;;3.02;92.29;99637.02;214640;1309;24549;-73
2022/10/12 02:21:15;;;;;;;38.10;19.00;;;;;;;3.04;92.58;99638.52;214604;1309;22484;-73
2022/10/12 02:26:18;;;;;;;36.50;17.20;;;;;;;3.04;92.66;99639.95;214677;1309;22508;-73
2022/10/12 02:31:45;;;;;;;32.50;16.60;;;;;;;3.08;92.88;99639.40;214593;1295;22489;-72
2022/10/12 02:37:06;;;;;;;31.40;15.40;;;;;;;3.11;93.12;99640.08;214691;1309;22516;-74
2022/10/12 02:42:14;;;;;;;34.80;17.80;;;;;;;3.19;93.49;99640.77;214711;1295;23267;-73
2022/10/12 02:47:17;;;;;;;37.50;17.70;;;;;;;3.23;93.23;99638.66;214890;1280;22587;-74
2022/10/12 02:52:20;;;;;;;34.40;17.70;;;;;;;3.24;93.23;99638.20;215001;1294;22562;-73
2022/10/12 02:57:22;;;;;;;38.30;18.90;;;;;;;3.21;93.04;99641.53;214709;1304;22579;-73
2022/10/12 03:02:23;;;;;;;38.50;18.30;;;;;;;3.19;93.14;99642.58;214616;1291;23216;-73
2022/10/12 03:07:25;;;;;;;37.70;18.30;;;;;;;3.16;93.22;99643.17;214669;1309;22473;-73
2022/10/12 03:12:27;;;;;;;41.10;20.20;;;;;;;3.13;93.17;99639.13;214695;1287;23296;-72
2022/10/12 03:17:28;;;;;;;36.40;18.80;;;;;;;3.10;93.18;99636.66;214614;1288;22526;-73
2022/10/12 03:22:30;;;;;;;39.70;19.50;;;;;;;3.07;93.23;99637.27;214553;1284;22602;-73
2022/10/12 03:27:32;;;;;;;37.00;19.20;;;;;;;3.04;93.36;99638.54;214801;1283;22516;-74
2022/10/12 03:32:33;;;;;;;38.70;18.40;;;;;;;3.00;93.25;99636.30;214508;1283;24234;-74
2022/10/12 03:37:35;;;;;;;39.60;19.10;;;;;;;2.98;93.28;99636.92;214594;1291;22491;-73
2022/10/12 03:42:37;;;;;;;38.70;17.70;;;;;;;2.96;93.53;99641.35;214643;1309;22505;-73
2022/10/12 03:47:39;;;;;;;36.80;18.70;;;;;;;2.93;93.50;99643.38;214897;1295;24236;-72
2022/10/12 03:52:42;;;;;;;38.50;19.10;;;;;;;2.89;93.63;99640.92;214741;1309;22464;-73
2022/10/12 03:57:44;;;;;;;35.40;17.30;;;;;;;2.85;93.50;99639.68;214741;1286;25407;-73
2022/10/12 04:02:46;;;;;;;42.20;19.90;;;;;;;2.80;93.48;99643.39;214700;1309;24289;-73
2022/10/12 04:07:48;;;;;;;38.50;18.50;;;;;;;2.74;93.43;99649.30;214838;1289;24773;-73
2022/10/12 04:12:50;;;;;;;35.20;18.40;;;;;;;2.69;93.49;99651.98;214665;1309;25227;-73
2022/10/12 04:17:52;;;;;;;37.10;18.10;;;;;;;2.65;93.57;99650.00;214841;1309;23757;-73
2022/10/12 04:22:53;;;;;;;36.80;19.50;;;;;;;2.61;93.65;99651.84;214746;1309;22460;-73
2022/10/12 04:27:55;;;;;;;41.20;18.60;;;;;;;2.58;93.80;99652.50;214811;1300;22573;-73
2022/10/12 04:32:57;;;;;;;42.00;19.40;;;;;;;2.53;93.80;99652.98;214612;1309;26481;-73
2022/10/12 04:37:59;;;;;;;41.20;21.10;;;;;;;2.47;93.71;99658.08;214525;1305;22943;-74
2022/10/12 04:43:00;;;;;;;40.70;21.50;;;;;;;2.41;93.64;99661.54;214654;1309;24255;-73
2022/10/12 04:48:02;;;;;;;51.10;25.20;;;;;;;2.33;93.54;99663.44;214520;1293;24433;-74
2022/10/12 04:53:04;;;;;;;56.50;30.00;;;;;;;2.22;93.34;99665.38;214683;1295;26426;-72
2022/10/12 04:58:06;;;;;;;62.50;30.60;;;;;;;2.08;92.89;99668.24;214687;1284;22551;-73
2022/10/12 05:03:07;;;;;;;62.40;30.90;;;;;;;2.01;93.28;99670.51;214679;1309;23901;-73
2022/10/12 05:08:09;;;;;;;57.90;27.80;;;;;;;2.01;93.51;99668.23;214507;1284;24307;-73
2022/10/12 05:13:11;;;;;;;56.40;29.40;;;;;;;2.01;93.48;99673.35;214583;1309;22568;-72
2022/10/12 05:18:13;;;;;;;59.80;29.20;;;;;;;1.99;93.64;99675.33;214585;1287;24327;-74
2022/10/12 05:23:15;;;;;;;57.60;28.00;;;;;;;2.04;93.81;99677.86;214630;1310;24240;-73
2022/10/12 05:28:16;;;;;;;55.50;26.00;;;;;;;2.11;94.08;99678.00;214859;1293;22539;-72
2022/10/12 05:33:18;;;;;;;55.40;24.20;;;;;;;2.21;94.48;99682.59;214659;1309;22489;-73
2022/10/12 05:38:20;;;;;;;51.80;25.20;;;;;;;2.31;94.57;99685.98;214612;1309;24289;-73
2022/10/12 05:43:22;;;;;;;55.60;25.10;;;;;;;2.41;94.58;99687.04;214750;1309;25267;-73
2022/10/12 05:48:23;;;;;;;49.40;25.30;;;;;;;2.50;94.70;99684.95;214901;1284;22478;-73
2022/10/12 05:53:26;;;;;;;48.70;24.90;;;;;;;2.61;94.67;99686.63;215033;1287;22555;-73
2022/10/12 05:58:29;;;;;;;47.20;26.10;;;;;;;2.70;94.63;99688.31;214960;1284;24348;-74
2022/10/12 06:03:31;;;;;;;54.30;27.10;;;;;;;2.78;94.48;99686.80;215510;1283;24296;-73
2022/10/12 06:08:36;;;;;;;44.50;24.10;;;;;;;2.85;94.51;99687.79;215264;1280;22488;-73
2022/10/12 06:13:38;;;;;;;46.50;24.10;;;;;;;2.94;94.51;99687.49;215549;1280;22499;-73
2022/10/12 06:18:40;;;;;;;49.00;23.90;;;;;;;3.07;94.71;99692.21;215252;1280;24977;-73
2022/10/12 06:23:41;;;;;;;55.00;26.00;;;;;;;3.19;94.78;99695.23;214734;1284;22490;-74
2022/10/12 06:28:43;;;;;;;48.50;25.50;;;;;;;3.29;94.70;99693.85;214856;1287;25258;-73
2022/10/12 06:33:45;;;;;;;51.10;27.70;;;;;;;3.37;94.77;99696.27;214709;1299;25228;-73
2022/10/12 06:38:47;;;;;;;50.80;26.80;;;;;;;3.49;94.84;99698.42;214871;1280;24319;-73
2022/10/12 06:43:48;;;;;;;49.50;24.60;;;;;;;3.67;95.07;99697.31;214808;1303;22518;-74
2022/10/12 06:48:50;;;;;;;37.00;21.50;;;;;;;3.88;95.34;99694.23;214621;1288;25303;-73
2022/10/12 06:53:55;;;;;;;41.50;23.10;;;;;;;4.12;95.49;99696.69;214536;1290;22472;-74
2022/10/12 06:58:57;;;;;;;43.00;23.20;;;;;;;4.27;95.21;99701.36;214585;1288;25222;-73
2022/10/12 07:03:58;;;;;;;47.20;24.80;;;;;;;4.36;95.13;99700.09;214658;1287;22516;-74
2022/10/12 07:09:01;;;;;;;35.20;17.00;;;;;;;4.50;94.97;99703.46;214869;1289;25533;-72
2022/10/12 07:14:03;;;;;;;42.20;23.60;;;;;;;4.68;95.11;99707.90;214826;1287;22483;-73
2022/10/12 07:19:05;;;;;;;48.00;24.00;;;;;;;4.88;95.08;99708.05;214788;1284;22651;-74
2022/10/12 07:24:11;;;;;;;45.00;22.70;;;;;;;5.10;95.06;99705.38;214895;1283;25258;-74
2022/10/12 07:29:12;;;;;;;46.00;24.30;;;;;;;5.33;95.37;99706.03;214883;1284;22619;-74
2022/10/12 07:34:14;;;;;;;43.90;24.20;;;;;;;5.53;95.24;99702.45;214602;1284;24224;-74
2022/10/12 07:39:16;;;;;;;42.50;22.90;;;;;;;5.75;95.43;99700.41;214780;1283;22628;-74
2022/10/12 07:44:19;;;;;;;44.80;25.30;;;;;;;6.02;95.37;99706.98;214882;1280;25348;-74
2022/10/12 07:49:21;;;;;;;34.20;18.80;;;;;;;6.32;95.75;99703.13;214960;1288;22971;-75
2022/10/12 07:54:23;;;;;;;35.10;21.00;;;;;;;6.60;95.49;99704.48;215069;1286;23649;-73
2022/10/12 07:59:30;;;;;;;45.40;25.50;;;;;;;6.84;95.02;99703.98;214881;1278;26490;-73
2022/10/12 08:04:31;;;;;;;40.30;24.30;;;;;;;7.09;94.92;99706.73;214752;1280;22615;-73
2022/10/12 08:09:35;;;;;;;43.00;24.70;;;;;;;7.36;94.97;99704.70;214870;1277;22476;-72
2022/10/12 08:14:37;;;;;;;35.20;21.50;;;;;;;7.65;95.04;99706.81;214766;1284;22482;-72
2022/10/12 08:19:39;;;;;;;37.50;22.30;;;;;;;7.93;94.66;99710.16;214816;1284;25428;-73
2022/10/12 08:24:41;;;;;;;40.20;22.90;;;;;;;8.20;94.32;99705.63;214612;1288;22472;-72
2022/10/12 08:29:43;;;;;;;33.30;19.10;;;;;;;8.47;93.85;99708.13;214832;1288;22505;-74
2022/10/12 08:34:44;;;;;;;35.90;20.20;;;;;;;8.71;93.33;99704.27;214863;1309;22511;-74
2022/10/12 08:39:46;;;;;;;32.40;19.00;;;;;;;8.99;93.09;99710.81;214683;1283;25340;-74
2022/10/12 08:45:07;;;;;;;27.30;16.00;;;;;;;9.26;92.60;99710.23;214764;1294;22492;-74
2022/10/12 08:50:17;;;;;;;33.20;17.10;;;;;;;9.52;91.82;99709.43;214742;1295;22514;-73
2022/10/12 08:55:45;;;;;;;22.00;12.90;;;;;;;9.78;91.36;99706.42;214646;1287;22408;-73
2022/10/12 09:00:56;;;;;;;20.60;12.00;;;;;;;10.03;90.35;99698.77;214717;1288;22476;-73
2022/10/12 09:06:21;;;;;;;22.50;11.60;;;;;;;10.26;89.98;99700.41;214816;1284;24374;-73
2022/10/12 09:11:32;;;;;;;21.60;11.40;;;;;;;10.49;89.21;99701.02;214935;1288;22464;-74
2022/10/12 09:16:40;;;;;;;21.20;11.20;;;;;;;10.74;88.86;99697.52;214852;1288;22497;-74
2022/10/12 09:21:45;;;;;;;22.20;11.60;;;;;;;10.93;87.99;99693.41;214901;1309;22472;-73
2022/10/12 09:26:51;;;;;;;16.80;8.60;;;;;;;11.16;87.53;99695.93;214699;1309;23226;-73
2022/10/12 09:32:19;;;;;;;21.40;12.30;;;;;;;11.37;86.40;99695.32;214674;1295;22495;-73
2022/10/12 09:37:25;;;;;;;22.10;11.60;;;;;;;11.56;85.74;99692.98;214854;1280;22610;-73
2022/10/12 09:42:26;;;;;;;18.60;9.80;;;;;;;11.76;85.11;99690.94;214576;1270;22529;-73
2022/10/12 09:47:32;;;;;;;25.30;13.10;;;;;;;11.95;84.58;99691.00;214799;1287;22491;-73
2022/10/12 09:52:34;;;;;;;22.70;10.20;;;;;;;12.13;84.08;99692.27;215217;1293;22646;-73
2022/10/12 09:57:40;;;;;;;13.10;5.70;;;;;;;12.26;83.30;99690.75;215124;1284;22608;-73
2022/10/12 10:02:50;;;;;;;13.50;6.10;;;;;;;12.38;82.10;99687.45;215068;1285;22622;-75
2022/10/12 10:08:11;;;;;;;11.80;6.40;;;;;;;12.52;81.59;99684.96;215051;1302;24267;-73
2022/10/12 10:13:14;;;;;;;7.00;4.30;;;;;;;12.69;80.96;99686.30;215247;1284;22487;-73
2022/10/12 10:18:19;;;;;;;10.00;5.40;;;;;;;12.85;79.94;99678.23;215358;1280;22620;-74
2022/10/12 10:23:27;;;;;;;12.30;6.50;;;;;;;13.06;79.32;99680.95;215344;1280;25568;-73
2022/10/12 10:28:32;;;;;;;14.00;7.40;;;;;;;13.28;78.97;99680.27;215283;1278;24103;-72
2022/10/12 10:33:35;;;;;;;12.60;5.30;;;;;;;13.38;78.39;99682.50;217955;1283;25516;-73
2022/10/12 10:38:54;;;;;;;5.90;3.70;;;;;;;13.46;77.55;99680.71;215322;1283;23071;-73
2022/10/12 10:43:56;;;;;;;16.90;7.20;;;;;;;13.54;76.97;99675.95;215076;1286;25417;-73
2022/10/12 10:49:20;;;;;;;9.30;4.50;;;;;;;13.58;76.06;99676.81;215207;1287;22479;-73
2022/10/12 10:54:21;;;;;;;5.20;3.00;;;;;;;13.54;75.22;99675.93;215053;1287;22596;-73
2022/10/12 10:59:39;;;;;;;10.70;3.80;;;;;;;13.51;74.78;99665.64;215228;1288;26475;-74
2022/10/12 11:04:44;;;;;;;9.40;4.10;;;;;;;13.37;74.43;99664.00;215130;1304;22478;-73
2022/10/12 11:09:53;;;;;;;9.80;3.30;;;;;;;13.26;74.23;99660.64;215224;1287;24299;-73
2022/10/12 11:15:03;;;;;;;8.20;3.80;;;;;;;13.26;73.76;99657.80;214859;1309;25345;-73
2022/10/12 11:20:35;;;;;;;5.50;2.70;;;;;;;13.41;73.59;99653.64;214897;1295;25391;-73
2022/10/12 11:25:53;;;;;;;7.90;5.70;;;;;;;13.55;72.75;99651.02;215046;1298;25179;-73
2022/10/12 11:30:54;;;;;;;11.60;3.90;;;;;;;13.68;72.41;99649.13;215174;1287;25315;-73
2022/10/12 11:35:57;;;;;;;7.70;3.00;;;;;;;13.82;72.09;99648.00;215089;1286;22485;-73
2022/10/12 11:41:12;;;;;;;6.90;2.90;;;;;;;13.91;71.56;99641.81;215070;1287;25310;-73
2022/10/12 11:46:46;;;;;;;6.40;3.20;;;;;;;14.00;71.09;99635.38;214955;1287;22493;-73
2022/10/12 11:51:51;;;;;;;6.20;2.90;;;;;;;14.16;70.83;99636.18;215020;1280;23346;-73
2022/10/12 11:56:57;;;;;;;8.40;2.90;;;;;;;14.16;69.86;99631.39;215073;1287;24338;-73
2022/10/12 12:02:18;;;;;;;5.40;2.50;;;;;;;14.11;69.43;99627.32;214924;1284;25436;-72
2022/10/12 12:07:48;;;;;;;6.00;2.60;;;;;;;14.11;68.75;99627.58;215026;1278;22482;-73
2022/10/12 12:13:10;;;;;;;7.00;3.00;;;;;;;13.91;68.11;99624.35;215019;1287;22502;-73
2022/10/12 12:18:43;;;;;;;6.20;3.20;;;;;;;13.92;68.24;99621.48;215033;1294;25394;-73
2022/10/12 12:23:53;;;;;;;3.40;1.90;;;;;;;13.96;67.71;99623.00;214837;1281;24533;-73
2022/10/12 12:29:26;;;;;;;4.90;2.30;;;;;;;13.89;67.70;99618.02;215113;1280;22467;-74
2022/10/12 12:34:28;;;;;;;6.80;2.70;;;;;;;13.97;67.66;99610.44;214897;1286;22501;-74
2022/10/12 12:39:33;;;;;;;6.80;3.00;;;;;;;14.04;67.41;99612.33;215080;1280;22549;-73
2022/10/12 12:44:43;;;;;;;4.50;2.50;;;;;;;14.10;67.30;99603.30;214925;1288;24245;-74
2022/10/12 12:49:56;;;;;;;11.80;2.70;;;;;;;14.09;66.78;99601.27;214815;1287;28213;-74
2022/10/12 12:55:13;;;;;;;8.20;3.30;;;;;;;14.00;66.67;99591.52;214876;1294;22531;-75
2022/10/12 13:00:22;;;;;;;4.20;2.20;;;;;;;14.03;66.22;99594.66;214967;1287;23055;-74
2022/10/12 13:05:38;;;;;;;5.60;3.60;;;;;;;14.10;65.70;99592.56;214789;1283;22566;-74
2022/10/12 13:11:09;;;;;;;5.20;2.70;;;;;;;14.19;65.31;99587.02;215149;1277;22640;-73
2022/10/12 13:16:33;;;;;;;6.20;3.00;;;;;;;14.25;65.36;99585.73;214713;1280;22475;-73
2022/10/12 13:21:55;;;;;;;8.10;2.50;;;;;;;14.29;65.21;99585.70;215143;1280;22556;-73
2022/10/12 13:27:03;;;;;;;5.50;2.80;;;;;;;14.31;65.15;99583.27;214843;1279;22472;-73
2022/10/12 13:32:20;;;;;;;10.10;2.50;;;;;;;14.36;65.11;99582.13;215073;1280;22995;-73
2022/10/12 13:37:29;;;;;;;7.60;3.10;;;;;;;14.40;64.99;99577.36;214848;1281;22494;-74
2022/10/12 13:42:34;;;;;;;8.40;3.70;;;;;;;14.43;64.94;99579.45;215339;1280;22717;-74
2022/10/12 13:47:41;;;;;;;4.60;3.10;;;;;;;14.50;65.02;99578.27;215196;1284;22522;-74
2022/10/12 13:52:52;;;;;;;8.60;3.50;;;;;;;14.50;64.73;99577.25;215142;1280;22483;-73
2022/10/12 13:57:54;;;;;;;6.50;3.00;;;;;;;14.46;64.03;99576.55;214778;1280;22484;-74
2022/10/12 14:03:01;;;;;;;7.20;3.50;;;;;;;14.36;63.51;99571.23;214462;1280;27354;-73
2022/10/12 14:08:14;;;;;;;7.00;3.50;;;;;;;14.26;63.89;99574.77;214604;1281;102096;-74
2022/10/12 14:13:27;;;;;;;9.90;3.00;;;;;;;14.13;64.49;99567.36;214823;1309;22616;-73
2022/10/12 14:18:44;;;;;;;6.20;2.70;;;;;;;13.94;64.93;99564.95;214503;1294;22501;-74
2022/10/12 14:23:48;;;;;;;5.40;2.60;;;;;;;13.72;64.97;99561.85;214504;1309;25303;-74
2022/10/12 14:28:51;;;;;;;15.50;3.20;;;;;;;13.49;65.36;99553.54;214654;1309;22506;-73
2022/10/12 14:33:53;;;;;;;8.70;3.60;;;;;;;13.31;65.92;99552.27;214587;1309;23814;-74
2022/10/12 14:39:11;;;;;;;7.90;3.20;;;;;;;13.19;66.43;99549.92;214589;1309;22613;-73
2022/10/12 14:44:14;;;;;;;6.90;3.40;;;;;;;13.10;66.61;99545.13;214652;1309;22480;-74
2022/10/12 14:49:19;;;;;;;9.20;3.30;;;;;;;13.03;66.95;99538.96;214556;1309;22512;-74
2022/10/12 14:54:21;;;;;;;5.70;2.60;;;;;;;12.96;67.08;99536.67;214620;1309;25528;-74
2022/10/12 14:59:23;;;;;;;5.10;2.80;;;;;;;12.88;67.04;99535.84;214471;1309;25383;-73
2022/10/12 15:04:25;;;;;;;7.20;3.30;;;;;;;12.80;66.89;99537.92;214383;1308;22726;-72
2022/10/12 15:09:26;;;;;;;8.80;4.60;;;;;;;12.71;67.23;99536.48;214580;1309;22481;-74
2022/10/12 15:14:28;;;;;;;6.60;2.80;;;;;;;12.61;67.40;99532.55;214554;1309;22469;-74
2022/10/12 15:19:30;;;;;;;5.50;2.80;;;;;;;12.52;67.59;99536.29;214545;1309;22601;-73
2022/10/12 15:24:31;;;;;;;7.80;2.90;;;;;;;12.42;68.06;99536.27;214496;1306;22556;-73
2022/10/12 15:29:33;;;;;;;5.70;3.00;;;;;;;12.28;68.62;99535.36;214508;1309;22548;-74
2022/10/12 15:34:35;;;;;;;5.80;2.70;;;;;;;12.12;68.89;99535.59;214618;1308;25342;-75
2022/10/12 15:39:37;;;;;;;7.20;2.70;;;;;;;11.94;69.33;99536.39;214477;1309;22486;-74
2022/10/12 15:44:39;;;;;;;5.20;2.60;;;;;;;11.75;69.92;99536.27;214599;1309;23224;-73
2022/10/12 15:49:41;;;;;;;5.90;3.20;;;;;;;11.54;70.35;99539.49;214635;1307;22630;-73
2022/10/12 15:54:43;;;;;;;9.50;3.40;;;;;;;11.31;70.74;99536.91;214670;1309;22485;-74
2022/10/12 15:59:51;;;;;;;6.90;2.90;;;;;;;11.09;71.05;99543.15;214688;1309;22684;-72
2022/10/12 16:04:53;;;;;;;7.00;2.90;;;;;;;10.87;71.50;99539.83;214539;1309;22474;-73
2022/10/12 16:09:54;;;;;;;6.10;3.00;;;;;;;10.64;71.83;99546.39;214563;1309;25350;-73
2022/10/12 16:14:56;;;;;;;5.00;2.70;;;;;;;10.41;72.27;99543.52;214668;1309;22475;-73
2022/10/12 16:19:58;;;;;;;6.00;2.90;;;;;;;10.19;72.65;99539.19;214589;1309;22482;-77
2022/10/12 16:25:02;;;;;;;5.60;2.90;;;;;;;9.98;72.73;99542.70;214476;1309;22965;-73
2022/10/12 16:30:06;;;;;;;10.30;3.70;;;;;;;9.78;73.34;99537.84;214688;1309;22739;-73
2022/10/12 16:35:09;;;;;;;12.20;4.20;;;;;;;9.60;73.80;99537.69;214562;1309;25389;-74
2022/10/12 16:40:12;;;;;;;10.70;4.10;;;;;;;9.43;74.18;99536.02;214560;1309;22511;-73
2022/10/12 16:45:14;;;;;;;6.50;3.50;;;;;;;9.28;74.46;99537.68;214610;1287;24403;-74
2022/10/12 16:50:20;;;;;;;8.90;3.90;;;;;;;9.12;74.67;99535.41;214489;1309;22659;-73
2022/10/12 16:55:22;;;;;;;16.40;5.20;;;;;;;8.96;74.93;99535.92;214585;1309;25269;-73
2022/10/12 17:00:24;;;;;;;11.60;4.80;;;;;;;8.83;75.17;99541.77;214594;1309;22471;-73
2022/10/12 17:05:25;;;;;;;10.40;4.80;;;;;;;8.71;75.37;99539.44;214701;1309;22664;-73
2022/10/12 17:10:27;;;;;;;12.40;5.30;;;;;;;8.60;75.53;99541.23;214475;1310;22536;-73
2022/10/12 17:15:29;;;;;;;8.50;4.20;;;;;;;8.48;75.74;99541.89;214422;1310;22510;-73
2022/10/12 17:20:31;;;;;;;17.30;7.40;;;;;;;8.37;76.32;99546.52;214384;1297;22490;-74
2022/10/12 17:25:32;;;;;;;26.20;11.30;;;;;;;8.24;77.03;99551.34;214359;1304;24814;-74
2022/10/12 17:30:37;;;;;;;38.10;17.10;;;;;;;8.09;77.64;99549.86;214355;1310;24205;-74
2022/10/12 17:35:40;;;;;;;35.50;17.10;;;;;;;7.94;78.23;99550.16;214348;1310;22501;-74
2022/10/12 17:40:42;;;;;;;38.00;17.90;;;;;;;7.79;78.51;99549.61;214492;1310;25314;-72
2022/10/12 17:45:43;;;;;;;37.70;18.80;;;;;;;7.67;79.00;99551.63;214398;1310;25295;-74
2022/10/12 17:50:45;;;;;;;52.20;25.00;;;;;;;7.56;79.42;99552.90;214523;1311;22575;-72
2022/10/12 17:55:47;;;;;;;47.70;24.10;;;;;;;7.46;79.72;99552.61;214558;1312;25203;-74
2022/10/12 18:00:49;;;;;;;52.60;23.70;;;;;;;7.38;80.01;99548.20;214486;1312;22424;-74
2022/10/12 18:05:51;;;;;;;48.60;26.30;;;;;;;7.30;80.26;99543.84;214462;1312;22945;-73
2022/10/12 18:10:53;;;;;;;41.30;21.70;;;;;;;7.21;80.50;99541.91;214356;1310;22611;-73
2022/10/12 18:15:56;;;;;;;41.20;19.60;;;;;;;7.14;81.01;99539.85;214465;1310;22584;-73
2022/10/12 18:20:58;;;;;;;34.40;18.30;;;;;;;7.05;80.99;99539.27;214460;1302;22492;-74
2022/10/12 18:26:02;;;;;;;34.00;17.20;;;;;;;6.97;81.09;99538.72;214350;1312;22606;-74
2022/10/12 18:31:05;;;;;;;34.90;18.40;;;;;;;6.90;81.37;99539.80;214674;1312;24223;-73
2022/10/12 18:36:07;;;;;;;38.60;19.70;;;;;;;6.83;81.48;99539.80;214302;1312;22487;-74
2022/10/12 18:41:12;;;;;;;40.00;19.90;;;;;;;6.75;81.71;99539.05;214360;1305;23263;-73
2022/10/12 18:46:17;;;;;;;41.30;21.30;;;;;;;6.67;82.28;99541.59;214541;1307;24274;-73
2022/10/12 18:51:31;;;;;;;38.50;19.80;;;;;;;6.60;82.31;99546.66;214509;1312;23047;-73
2022/10/12 18:56:35;;;;;;;41.00;20.00;;;;;;;6.53;82.55;99542.50;214581;1311;22621;-73
2022/10/12 19:01:37;;;;;;;47.20;21.80;;;;;;;6.48;82.85;99542.38;214566;1312;25538;-73
2022/10/12 19:06:43;;;;;;;46.30;22.90;;;;;;;6.43;82.92;99542.35;214306;1311;22560;-73
2022/10/12 19:11:46;;;;;;;50.90;25.70;;;;;;;6.35;83.14;99540.48;214486;1311;22612;-74
2022/10/12 19:16:49;;;;;;;55.30;26.70;;;;;;;6.29;83.50;99546.97;214443;1312;23193;-73
2022/10/12 19:21:52;;;;;;;49.60;24.70;;;;;;;6.22;83.70;99550.61;214400;1311;26372;-72
2022/10/12 19:26:54;;;;;;;55.80;25.10;;;;;;;6.14;83.78;99551.61;214478;1312;22557;-73
2022/10/12 19:31:56;;;;;;;52.10;24.30;;;;;;;6.07;84.17;99554.45;214323;1310;22652;-74
2022/10/12 19:36:59;;;;;;;51.40;24.80;;;;;;;6.00;84.21;99558.34;214508;1311;24373;-73
2022/10/12 19:42:01;;;;;;;47.10;24.90;;;;;;;5.93;84.71;99551.38;214459;1312;22522;-73
2022/10/12 19:47:03;;;;;;;50.80;23.50;;;;;;;5.88;84.71;99553.72;214390;1304;22604;-74
2022/10/12 19:52:04;;;;;;;48.10;22.60;;;;;;;5.82;84.51;99555.76;214475;1312;24018;-73
2022/10/12 19:57:06;;;;;;;40.70;20.20;;;;;;;5.76;84.93;99549.58;214432;1311;24341;-73
2022/10/12 20:02:09;;;;;;;39.10;19.50;;;;;;;5.71;85.25;99553.73;214433;1312;24345;-73
2022/10/12 20:07:11;;;;;;;32.90;15.10;;;;;;;5.69;85.30;99549.70;214395;1310;24261;-73
2022/10/12 20:12:13;;;;;;;30.00;15.60;;;;;;;5.68;85.75;99553.80;214492;1304;24508;-73
2022/10/12 20:17:15;;;;;;;32.90;15.60;;;;;;;5.65;85.72;99556.48;214335;1312;24234;-73
2022/10/12 20:22:17;;;;;;;29.50;13.80;;;;;;;5.62;85.48;99554.20;214366;1312;22616;-73
2022/10/12 20:27:19;;;;;;;29.10;14.00;;;;;;;5.60;86.17;99555.11;214488;1312;24330;-73
2022/10/12 20:32:21;;;;;;;17.20;9.20;;;;;;;5.57;85.92;99553.77;214403;1311;22586;-73
2022/10/12 20:37:23;;;;;;;29.70;13.20;;;;;;;5.55;86.38;99550.28;214361;1310;22483;-73
2022/10/12 20:42:25;;;;;;;30.40;15.60;;;;;;;5.52;86.55;99546.89;214467;1294;22643;-73
2022/10/12 20:47:27;;;;;;;30.90;15.30;;;;;;;5.46;86.32;99544.95;214553;1312;22477;-73
2022/10/12 20:52:29;;;;;;;27.10;14.10;;;;;;;5.39;86.45;99543.32;214419;1311;25371;-73
2022/10/12 20:57:30;;;;;;;24.60;14.00;;;;;;;5.30;86.53;99544.39;214372;1310;25162;-74
2022/10/12 21:02:32;;;;;;;27.70;13.10;;;;;;;5.23;86.91;99543.11;214384;1311;24262;-74
2022/10/12 21:07:35;;;;;;;27.90;13.20;;;;;;;5.16;86.89;99542.08;214515;1311;25394;-73
2022/10/12 21:12:36;;;;;;;27.20;13.40;;;;;;;5.10;87.04;99542.55;214532;1310;25380;-73
2022/10/12 21:17:43;;;;;;;27.30;15.60;;;;;;;5.03;87.22;99544.17;214486;1298;22530;-76
2022/10/12 21:22:45;;;;;;;26.20;13.30;;;;;;;4.95;87.17;99539.77;214400;1312;24218;-74
2022/10/12 21:27:47;;;;;;;25.80;12.10;;;;;;;4.90;87.28;99539.86;214525;1310;22497;-73
2022/10/12 21:32:49;;;;;;;29.70;14.00;;;;;;;4.84;87.24;99536.81;214395;1311;22492;-73
2022/10/12 21:37:51;;;;;;;28.30;14.60;;;;;;;4.78;87.46;99532.55;214304;1312;22474;-73
2022/10/12 21:42:53;;;;;;;29.70;14.20;;;;;;;4.72;87.35;99530.81;214448;1312;22517;-73
2022/10/12 21:47:55;;;;;;;24.70;12.70;;;;;;;4.67;87.78;99526.98;214528;1304;22969;-73
2022/10/12 21:53:01;;;;;;;23.70;13.60;;;;;;;4.61;87.41;99531.05;214447;1310;22678;-72
2022/10/12 21:58:02;;;;;;;25.20;13.10;;;;;;;4.54;87.69;99535.44;214447;1302;24447;-73
2022/10/12 22:03:04;;;;;;;26.00;12.50;;;;;;;4.48;88.02;99533.03;214458;1293;22477;-73
2022/10/12 22:08:07;;;;;;;27.10;13.10;;;;;;;4.41;88.00;99535.04;214340;1312;23696;-73
2022/10/12 22:13:08;;;;;;;34.50;14.30;;;;;;;4.36;88.38;99533.22;214402;1312;24234;-75
2022/10/12 22:18:10;;;;;;;32.90;14.50;;;;;;;4.31;88.45;99529.27;214377;1312;22523;-72
2022/10/12 22:23:13;;;;;;;33.90;17.00;;;;;;;4.26;88.40;99527.09;214515;1311;22634;-73
2022/10/12 22:28:15;;;;;;;31.60;14.50;;;;;;;4.22;88.72;99521.91;214403;1311;22531;-73
2022/10/12 22:33:17;;;;;;;29.70;15.00;;;;;;;4.19;88.74;99521.36;214358;1310;23884;-74
2022/10/12 22:38:19;;;;;;;34.00;15.80;;;;;;;4.19;89.03;99518.10;214553;1310;22665;-73
2022/10/12 22:43:21;;;;;;;32.20;15.40;;;;;;;4.18;89.18;99513.46;214368;1311;25227;-73
2022/10/12 22:48:24;;;;;;;31.10;14.80;;;;;;;4.19;89.34;99513.86;214460;1311;22725;-73
2022/10/12 22:53:28;;;;;;;33.00;16.30;;;;;;;4.23;89.92;99507.73;214597;1312;25227;-73
2022/10/12 22:58:30;;;;;;;30.50;16.30;;;;;;;4.21;89.61;99501.66;214716;1312;24341;-74
2022/10/12 23:03:33;;;;;;;30.50;16.60;;;;;;;4.15;89.44;99498.87;214470;1312;22619;-73
2022/10/12 23:08:39;;;;;;;30.80;17.00;;;;;;;4.11;89.61;99490.88;214568;1310;24745;-73
2022/10/12 23:13:47;;;;;;;31.20;15.40;;;;;;;4.05;89.71;99492.81;214591;1310;22487;-73
2022/10/12 23:19:00;;;;;;;30.80;16.10;;;;;;;4.07;90.00;99494.91;214543;1311;22486;-73
2022/10/12 23:24:05;;;;;;;30.60;17.60;;;;;;;4.09;90.03;99499.84;214667;1312;25416;-73
2022/10/12 23:29:07;;;;;;;29.80;16.00;;;;;;;4.00;89.83;99497.83;214444;1312;26450;-73